sensor_id;sensor_type;location;lat;lon;timestamp;P1;durP1;ratioP1;P2;durP2;ratioP2
15230;SDS011;32569;51.762;8.564;2023-03-12T00:00:38;9.23;;;7.37;;
15230;SDS011;32569;51.762;8.564;2023-03-12T00:03:05;8.40;;;7.27;;
15230;SDS011;32569;51.762;8.564;2023-03-12T00:05:32;9.53;;;7.77;;
15230;SDS011;32569;51.762;8.564;2023-03-12T00:08:00;8.50;;;7.53;;
15230;SDS011;32569;51.762;8.564;2023-03-12T00:10:26;8.20;;;7.30;;
15230;SDS011;32569;51.762;8.564;2023-03-12T00:12:56;9.30;;;7.20;;
15230;SDS011;32569;51.762;8.564;2023-03-12T00:15:25;8.83;;;7.53;;
15230;SDS011;32569;51.762;8.564;2023-03-12T00:17:52;8.33;;;6.77;;
15230;SDS011;32569;51.762;8.564;2023-03-12T00:20:19;8.17;;;7.33;;
15230;SDS011;32569;51.762;8.564;2023-03-12T00:22:47;8.60;;;7.77;;
15230;SDS011;32569;51.762;8.564;2023-03-12T00:25:15;8.87;;;7.47;;
15230;SDS011;32569;51.762;8.564;2023-03-12T00:27:42;8.73;;;6.83;;
15230;SDS011;32569;51.762;8.564;2023-03-12T00:30:09;9.50;;;6.90;;
15230;SDS011;32569;51.762;8.564;2023-03-12T00:32:37;9.70;;;7.50;;
15230;SDS011;32569;51.762;8.564;2023-03-12T00:35:04;9.87;;;7.87;;
15230;SDS011;32569;51.762;8.564;2023-03-12T00:37:31;8.30;;;7.40;;
15230;SDS011;32569;51.762;8.564;2023-03-12T00:39:58;8.50;;;7.70;;
15230;SDS011;32569;51.762;8.564;2023-03-12T00:42:27;8.50;;;7.57;;
15230;SDS011;32569;51.762;8.564;2023-03-12T00:44:54;8.73;;;7.93;;
15230;SDS011;32569;51.762;8.564;2023-03-12T00:47:20;9.27;;;7.70;;
15230;SDS011;32569;51.762;8.564;2023-03-12T00:49:47;8.13;;;7.33;;
15230;SDS011;32569;51.762;8.564;2023-03-12T00:52:14;8.90;;;7.63;;
15230;SDS011;32569;51.762;8.564;2023-03-12T00:54:40;9.00;;;8.07;;
15230;SDS011;32569;51.762;8.564;2023-03-12T00:57:07;8.43;;;7.50;;
15230;SDS011;32569;51.762;8.564;2023-03-12T00:59:35;8.37;;;7.50;;
15230;SDS011;32569;51.762;8.564;2023-03-12T01:02:04;7.83;;;7.13;;
15230;SDS011;32569;51.762;8.564;2023-03-12T01:04:31;10.43;;;7.47;;
15230;SDS011;32569;51.762;8.564;2023-03-12T01:06:57;10.87;;;7.33;;
15230;SDS011;32569;51.762;8.564;2023-03-12T01:09:24;10.27;;;6.83;;
15230;SDS011;32569;51.762;8.564;2023-03-12T01:11:50;8.00;;;6.87;;
15230;SDS011;32569;51.762;8.564;2023-03-12T01:14:17;7.83;;;7.10;;
15230;SDS011;32569;51.762;8.564;2023-03-12T01:16:45;8.07;;;7.27;;
15230;SDS011;32569;51.762;8.564;2023-03-12T01:19:11;8.83;;;6.87;;
15230;SDS011;32569;51.762;8.564;2023-03-12T01:21:38;7.13;;;6.53;;
15230;SDS011;32569;51.762;8.564;2023-03-12T01:24:05;7.80;;;6.43;;
15230;SDS011;32569;51.762;8.564;2023-03-12T01:26:32;7.90;;;6.53;;
15230;SDS011;32569;51.762;8.564;2023-03-12T01:28:59;7.90;;;7.00;;
15230;SDS011;32569;51.762;8.564;2023-03-12T01:31:26;10.67;;;6.83;;
15230;SDS011;32569;51.762;8.564;2023-03-12T01:33:54;7.37;;;6.57;;
15230;SDS011;32569;51.762;8.564;2023-03-12T01:36:21;7.33;;;6.33;;
15230;SDS011;32569;51.762;8.564;2023-03-12T01:38:49;8.27;;;6.30;;
15230;SDS011;32569;51.762;8.564;2023-03-12T01:41:18;8.00;;;7.00;;
15230;SDS011;32569;51.762;8.564;2023-03-12T01:43:45;7.70;;;6.93;;
15230;SDS011;32569;51.762;8.564;2023-03-12T01:46:21;7.90;;;6.27;;
15230;SDS011;32569;51.762;8.564;2023-03-12T01:48:55;7.17;;;6.50;;
15230;SDS011;32569;51.762;8.564;2023-03-12T01:51:24;7.97;;;6.87;;
15230;SDS011;32569;51.762;8.564;2023-03-12T01:53:55;7.47;;;6.37;;
15230;SDS011;32569;51.762;8.564;2023-03-12T01:56:26;7.87;;;7.07;;
15230;SDS011;32569;51.762;8.564;2023-03-12T01:58:56;7.87;;;7.07;;
15230;SDS011;32569;51.762;8.564;2023-03-12T02:01:25;8.47;;;7.13;;
15230;SDS011;32569;51.762;8.564;2023-03-12T02:03:59;7.80;;;7.00;;
15230;SDS011;32569;51.762;8.564;2023-03-12T02:06:28;8.60;;;7.43;;
15230;SDS011;32569;51.762;8.564;2023-03-12T02:08:59;9.03;;;7.23;;
15230;SDS011;32569;51.762;8.564;2023-03-12T02:11:27;8.40;;;7.53;;
15230;SDS011;32569;51.762;8.564;2023-03-12T02:13:54;8.20;;;7.23;;
15230;SDS011;32569;51.762;8.564;2023-03-12T02:16:21;11.03;;;7.80;;
15230;SDS011;32569;51.762;8.564;2023-03-12T02:18:47;10.57;;;8.30;;
15230;SDS011;32569;51.762;8.564;2023-03-12T02:21:20;8.57;;;7.67;;
15230;SDS011;32569;51.762;8.564;2023-03-12T02:23:51;8.47;;;7.57;;
15230;SDS011;32569;51.762;8.564;2023-03-12T02:26:23;8.77;;;7.87;;
15230;SDS011;32569;51.762;8.564;2023-03-12T02:28:52;8.63;;;7.13;;
15230;SDS011;32569;51.762;8.564;2023-03-12T02:31:20;9.00;;;8.10;;
15230;SDS011;32569;51.762;8.564;2023-03-12T02:33:50;7.60;;;6.80;;
15230;SDS011;32569;51.762;8.564;2023-03-12T02:36:20;8.33;;;7.37;;
15230;SDS011;32569;51.762;8.564;2023-03-12T02:38:47;8.50;;;7.53;;
15230;SDS011;32569;51.762;8.564;2023-03-12T02:41:22;12.80;;;7.53;;
15230;SDS011;32569;51.762;8.564;2023-03-12T02:44:01;11.53;;;8.07;;
15230;SDS011;32569;51.762;8.564;2023-03-12T02:46:31;9.47;;;7.93;;
15230;SDS011;32569;51.762;8.564;2023-03-12T02:49:00;10.00;;;7.53;;
15230;SDS011;32569;51.762;8.564;2023-03-12T02:51:27;9.13;;;7.00;;
15230;SDS011;32569;51.762;8.564;2023-03-12T02:53:54;7.63;;;6.93;;
15230;SDS011;32569;51.762;8.564;2023-03-12T02:56:21;10.50;;;7.40;;
15230;SDS011;32569;51.762;8.564;2023-03-12T02:58:49;7.93;;;7.20;;
15230;SDS011;32569;51.762;8.564;2023-03-12T03:01:16;7.43;;;6.80;;
15230;SDS011;32569;51.762;8.564;2023-03-12T03:03:43;8.90;;;7.60;;
15230;SDS011;32569;51.762;8.564;2023-03-12T03:06:13;8.57;;;7.23;;
15230;SDS011;32569;51.762;8.564;2023-03-12T03:08:40;8.63;;;7.13;;
15230;SDS011;32569;51.762;8.564;2023-03-12T03:11:07;7.93;;;7.17;;
15230;SDS011;32569;51.762;8.564;2023-03-12T03:13:34;7.73;;;6.93;;
15230;SDS011;32569;51.762;8.564;2023-03-12T03:16:02;7.00;;;6.40;;
15230;SDS011;32569;51.762;8.564;2023-03-12T03:18:30;7.00;;;6.33;;
15230;SDS011;32569;51.762;8.564;2023-03-12T03:20:58;7.70;;;7.00;;
15230;SDS011;32569;51.762;8.564;2023-03-12T03:23:29;9.23;;;7.27;;
15230;SDS011;32569;51.762;8.564;2023-03-12T03:25:58;7.43;;;6.73;;
15230;SDS011;32569;51.762;8.564;2023-03-12T03:28:28;8.03;;;7.27;;
15230;SDS011;32569;51.762;8.564;2023-03-12T03:30:55;7.40;;;6.70;;
15230;SDS011;32569;51.762;8.564;2023-03-12T03:33:26;7.57;;;6.80;;
15230;SDS011;32569;51.762;8.564;2023-03-12T03:35:57;8.77;;;7.40;;
15230;SDS011;32569;51.762;8.564;2023-03-12T03:38:25;7.83;;;6.97;;
15230;SDS011;32569;51.762;8.564;2023-03-12T03:40:52;7.67;;;6.70;;
15230;SDS011;32569;51.762;8.564;2023-03-12T03:43:19;7.23;;;6.53;;
15230;SDS011;32569;51.762;8.564;2023-03-12T03:45:47;8.93;;;6.67;;
15230;SDS011;32569;51.762;8.564;2023-03-12T03:48:14;8.57;;;6.53;;
15230;SDS011;32569;51.762;8.564;2023-03-12T03:50:42;7.47;;;6.77;;
15230;SDS011;32569;51.762;8.564;2023-03-12T03:53:08;8.00;;;7.03;;
15230;SDS011;32569;51.762;8.564;2023-03-12T03:55:36;8.27;;;6.60;;
15230;SDS011;32569;51.762;8.564;2023-03-12T03:58:04;7.40;;;6.80;;
15230;SDS011;32569;51.762;8.564;2023-03-12T04:00:34;6.57;;;5.97;;
15230;SDS011;32569;51.762;8.564;2023-03-12T04:03:00;6.93;;;6.23;;
15230;SDS011;32569;51.762;8.564;2023-03-12T04:05:27;6.90;;;6.30;;
15230;SDS011;32569;51.762;8.564;2023-03-12T04:07:55;7.00;;;6.23;;
15230;SDS011;32569;51.762;8.564;2023-03-12T04:10:27;6.90;;;6.30;;
15230;SDS011;32569;51.762;8.564;2023-03-12T04:12:57;7.20;;;6.50;;
15230;SDS011;32569;51.762;8.564;2023-03-12T04:15:24;7.00;;;6.10;;
15230;SDS011;32569;51.762;8.564;2023-03-12T04:17:56;6.70;;;6.07;;
15230;SDS011;32569;51.762;8.564;2023-03-12T04:20:23;7.73;;;5.80;;
15230;SDS011;32569;51.762;8.564;2023-03-12T04:22:50;6.43;;;5.87;;
15230;SDS011;32569;51.762;8.564;2023-03-12T04:25:17;6.93;;;6.23;;
15230;SDS011;32569;51.762;8.564;2023-03-12T04:27:44;6.50;;;5.80;;
15230;SDS011;32569;51.762;8.564;2023-03-12T04:30:11;6.77;;;6.20;;
15230;SDS011;32569;51.762;8.564;2023-03-12T04:32:41;7.80;;;6.50;;
15230;SDS011;32569;51.762;8.564;2023-03-12T04:35:11;7.70;;;6.90;;
15230;SDS011;32569;51.762;8.564;2023-03-12T04:37:37;7.13;;;6.43;;
15230;SDS011;32569;51.762;8.564;2023-03-12T04:40:08;7.63;;;6.53;;
15230;SDS011;32569;51.762;8.564;2023-03-12T04:42:37;7.93;;;7.13;;
15230;SDS011;32569;51.762;8.564;2023-03-12T04:45:04;9.77;;;6.60;;
15230;SDS011;32569;51.762;8.564;2023-03-12T04:47:32;8.30;;;6.37;;
15230;SDS011;32569;51.762;8.564;2023-03-12T04:49:59;8.87;;;6.60;;
15230;SDS011;32569;51.762;8.564;2023-03-12T04:52:26;6.93;;;6.33;;
15230;SDS011;32569;51.762;8.564;2023-03-12T04:54:53;6.73;;;6.13;;
15230;SDS011;32569;51.762;8.564;2023-03-12T04:57:20;7.23;;;6.23;;
15230;SDS011;32569;51.762;8.564;2023-03-12T04:59:51;6.50;;;6.00;;
15230;SDS011;32569;51.762;8.564;2023-03-12T05:02:18;7.73;;;6.40;;
15230;SDS011;32569;51.762;8.564;2023-03-12T05:04:47;7.97;;;6.40;;
15230;SDS011;32569;51.762;8.564;2023-03-12T05:07:13;6.97;;;6.17;;
15230;SDS011;32569;51.762;8.564;2023-03-12T05:09:40;7.60;;;6.33;;
15230;SDS011;32569;51.762;8.564;2023-03-12T05:12:08;6.83;;;6.17;;
15230;SDS011;32569;51.762;8.564;2023-03-12T05:14:34;6.77;;;6.10;;
15230;SDS011;32569;51.762;8.564;2023-03-12T05:17:05;6.80;;;6.07;;
15230;SDS011;32569;51.762;8.564;2023-03-12T05:19:34;6.37;;;5.77;;
15230;SDS011;32569;51.762;8.564;2023-03-12T05:22:01;6.83;;;5.73;;
15230;SDS011;32569;51.762;8.564;2023-03-12T05:24:27;6.67;;;6.00;;
15230;SDS011;32569;51.762;8.564;2023-03-12T05:26:54;6.63;;;5.87;;
15230;SDS011;32569;51.762;8.564;2023-03-12T05:29:20;6.23;;;5.63;;
15230;SDS011;32569;51.762;8.564;2023-03-12T05:31:47;6.10;;;5.60;;
15230;SDS011;32569;51.762;8.564;2023-03-12T05:34:15;6.57;;;5.97;;
15230;SDS011;32569;51.762;8.564;2023-03-12T05:36:42;6.83;;;6.23;;
15230;SDS011;32569;51.762;8.564;2023-03-12T05:39:09;6.40;;;5.80;;
15230;SDS011;32569;51.762;8.564;2023-03-12T05:41:35;6.73;;;6.13;;
15230;SDS011;32569;51.762;8.564;2023-03-12T05:44:02;6.43;;;5.83;;
15230;SDS011;32569;51.762;8.564;2023-03-12T05:46:29;6.13;;;5.53;;
15230;SDS011;32569;51.762;8.564;2023-03-12T05:48:56;8.23;;;5.87;;
15230;SDS011;32569;51.762;8.564;2023-03-12T05:51:23;6.10;;;5.50;;
15230;SDS011;32569;51.762;8.564;2023-03-12T05:53:50;6.57;;;5.50;;
15230;SDS011;32569;51.762;8.564;2023-03-12T05:56:19;6.80;;;6.10;;
15230;SDS011;32569;51.762;8.564;2023-03-12T05:58:46;5.90;;;5.40;;
15230;SDS011;32569;51.762;8.564;2023-03-12T06:01:15;5.83;;;5.33;;
15230;SDS011;32569;51.762;8.564;2023-03-12T06:03:43;6.40;;;5.40;;
15230;SDS011;32569;51.762;8.564;2023-03-12T06:06:17;6.43;;;5.83;;
15230;SDS011;32569;51.762;8.564;2023-03-12T06:08:46;6.33;;;5.73;;
15230;SDS011;32569;51.762;8.564;2023-03-12T06:11:13;6.00;;;5.33;;
15230;SDS011;32569;51.762;8.564;2023-03-12T06:13:39;6.30;;;5.70;;
15230;SDS011;32569;51.762;8.564;2023-03-12T06:16:08;5.57;;;4.90;;
15230;SDS011;32569;51.762;8.564;2023-03-12T06:18:40;5.50;;;4.90;;
15230;SDS011;32569;51.762;8.564;2023-03-12T06:21:07;6.60;;;5.07;;
15230;SDS011;32569;51.762;8.564;2023-03-12T06:23:35;5.97;;;4.50;;
15230;SDS011;32569;51.762;8.564;2023-03-12T06:26:03;4.90;;;4.50;;
15230;SDS011;32569;51.762;8.564;2023-03-12T06:28:30;5.23;;;4.30;;
15230;SDS011;32569;51.762;8.564;2023-03-12T06:30:58;5.07;;;4.57;;
15230;SDS011;32569;51.762;8.564;2023-03-12T06:33:24;7.43;;;4.27;;
15230;SDS011;32569;51.762;8.564;2023-03-12T06:35:52;4.57;;;4.13;;
15230;SDS011;32569;51.762;8.564;2023-03-12T06:38:20;5.87;;;4.23;;
15230;SDS011;32569;51.762;8.564;2023-03-12T06:40:52;4.10;;;3.80;;
15230;SDS011;32569;51.762;8.564;2023-03-12T06:43:21;4.23;;;3.70;;
15230;SDS011;32569;51.762;8.564;2023-03-12T06:45:48;3.90;;;3.60;;
15230;SDS011;32569;51.762;8.564;2023-03-12T06:48:15;4.70;;;3.83;;
15230;SDS011;32569;51.762;8.564;2023-03-12T06:50:45;4.03;;;3.73;;
15230;SDS011;32569;51.762;8.564;2023-03-12T06:53:12;4.60;;;3.50;;
15230;SDS011;32569;51.762;8.564;2023-03-12T06:55:38;4.00;;;3.43;;
15230;SDS011;32569;51.762;8.564;2023-03-12T06:58:05;3.30;;;3.00;;
15230;SDS011;32569;51.762;8.564;2023-03-12T07:00:39;6.13;;;3.43;;
15230;SDS011;32569;51.762;8.564;2023-03-12T07:03:06;5.97;;;3.70;;
15230;SDS011;32569;51.762;8.564;2023-03-12T07:05:32;4.57;;;3.30;;
15230;SDS011;32569;51.762;8.564;2023-03-12T07:07:59;4.77;;;3.10;;
15230;SDS011;32569;51.762;8.564;2023-03-12T07:10:26;3.83;;;3.53;;
15230;SDS011;32569;51.762;8.564;2023-03-12T07:12:53;3.27;;;2.97;;
15230;SDS011;32569;51.762;8.564;2023-03-12T07:15:20;4.83;;;3.53;;
15230;SDS011;32569;51.762;8.564;2023-03-12T07:17:48;5.73;;;3.27;;
15230;SDS011;32569;51.762;8.564;2023-03-12T07:20:15;2.90;;;2.70;;
15230;SDS011;32569;51.762;8.564;2023-03-12T07:22:42;3.43;;;3.13;;
15230;SDS011;32569;51.762;8.564;2023-03-12T07:25:09;3.20;;;3.00;;
15230;SDS011;32569;51.762;8.564;2023-03-12T07:27:36;3.77;;;3.00;;
15230;SDS011;32569;51.762;8.564;2023-03-12T07:30:03;3.37;;;2.77;;
15230;SDS011;32569;51.762;8.564;2023-03-12T07:32:30;3.23;;;2.83;;
15230;SDS011;32569;51.762;8.564;2023-03-12T07:35:01;3.40;;;2.90;;
15230;SDS011;32569;51.762;8.564;2023-03-12T07:37:27;4.13;;;2.73;;
15230;SDS011;32569;51.762;8.564;2023-03-12T07:39:54;5.80;;;3.03;;
15230;SDS011;32569;51.762;8.564;2023-03-12T07:42:21;3.17;;;2.90;;
15230;SDS011;32569;51.762;8.564;2023-03-12T07:44:47;3.93;;;2.70;;
15230;SDS011;32569;51.762;8.564;2023-03-12T07:47:14;2.70;;;2.50;;
15230;SDS011;32569;51.762;8.564;2023-03-12T07:49:40;2.63;;;2.37;;
15230;SDS011;32569;51.762;8.564;2023-03-12T07:52:08;2.63;;;2.43;;
15230;SDS011;32569;51.762;8.564;2023-03-12T07:54:36;2.67;;;2.40;;
15230;SDS011;32569;51.762;8.564;2023-03-12T07:57:03;3.67;;;2.90;;
15230;SDS011;32569;51.762;8.564;2023-03-12T07:59:29;5.67;;;4.70;;
15230;SDS011;32569;51.762;8.564;2023-03-12T08:01:56;5.07;;;4.43;;
15230;SDS011;32569;51.762;8.564;2023-03-12T08:04:23;8.03;;;5.60;;
15230;SDS011;32569;51.762;8.564;2023-03-12T08:06:49;7.00;;;4.07;;
15230;SDS011;32569;51.762;8.564;2023-03-12T08:09:20;5.00;;;3.40;;
15230;SDS011;32569;51.762;8.564;2023-03-12T08:11:46;9.37;;;4.60;;
15230;SDS011;32569;51.762;8.564;2023-03-12T08:14:19;6.00;;;3.13;;
15230;SDS011;32569;51.762;8.564;2023-03-12T08:16:48;5.10;;;2.97;;
15230;SDS011;32569;51.762;8.564;2023-03-12T08:19:15;3.97;;;2.87;;
15230;SDS011;32569;51.762;8.564;2023-03-12T08:21:42;3.27;;;2.70;;
15230;SDS011;32569;51.762;8.564;2023-03-12T08:24:09;3.63;;;2.53;;
15230;SDS011;32569;51.762;8.564;2023-03-12T08:26:36;4.07;;;2.43;;
15230;SDS011;32569;51.762;8.564;2023-03-12T08:29:03;4.40;;;2.70;;
15230;SDS011;32569;51.762;8.564;2023-03-12T08:31:30;6.13;;;3.10;;
15230;SDS011;32569;51.762;8.564;2023-03-12T08:34:00;3.90;;;3.60;;
15230;SDS011;32569;51.762;8.564;2023-03-12T08:36:26;4.23;;;3.57;;
15230;SDS011;32569;51.762;8.564;2023-03-12T08:38:53;3.63;;;3.17;;
15230;SDS011;32569;51.762;8.564;2023-03-12T08:41:19;3.10;;;2.80;;
15230;SDS011;32569;51.762;8.564;2023-03-12T08:43:47;6.27;;;3.50;;
15230;SDS011;32569;51.762;8.564;2023-03-12T08:46:14;3.13;;;2.80;;
15230;SDS011;32569;51.762;8.564;2023-03-12T08:48:41;6.03;;;2.97;;
15230;SDS011;32569;51.762;8.564;2023-03-12T08:51:07;4.60;;;3.10;;
15230;SDS011;32569;51.762;8.564;2023-03-12T08:53:35;4.20;;;3.07;;
15230;SDS011;32569;51.762;8.564;2023-03-12T08:56:02;3.17;;;2.63;;
15230;SDS011;32569;51.762;8.564;2023-03-12T08:58:29;4.50;;;2.80;;
15230;SDS011;32569;51.762;8.564;2023-03-12T09:00:57;7.20;;;3.30;;
15230;SDS011;32569;51.762;8.564;2023-03-12T09:03:24;4.90;;;2.70;;
15230;SDS011;32569;51.762;8.564;2023-03-12T09:06:01;3.13;;;2.40;;
15230;SDS011;32569;51.762;8.564;2023-03-12T09:08:28;3.10;;;2.63;;
15230;SDS011;32569;51.762;8.564;2023-03-12T09:10:58;3.50;;;2.83;;
15230;SDS011;32569;51.762;8.564;2023-03-12T09:13:25;4.13;;;2.80;;
15230;SDS011;32569;51.762;8.564;2023-03-12T09:15:51;4.70;;;3.00;;
15230;SDS011;32569;51.762;8.564;2023-03-12T09:18:25;2.53;;;2.33;;
15230;SDS011;32569;51.762;8.564;2023-03-12T09:20:51;5.20;;;3.30;;
15230;SDS011;32569;51.762;8.564;2023-03-12T09:23:18;3.77;;;2.60;;
15230;SDS011;32569;51.762;8.564;2023-03-12T09:25:45;4.20;;;2.80;;
15230;SDS011;32569;51.762;8.564;2023-03-12T09:28:12;6.23;;;2.90;;
15230;SDS011;32569;51.762;8.564;2023-03-12T09:30:39;3.13;;;2.87;;
15230;SDS011;32569;51.762;8.564;2023-03-12T09:33:06;6.13;;;3.63;;
15230;SDS011;32569;51.762;8.564;2023-03-12T09:35:37;4.00;;;3.10;;
15230;SDS011;32569;51.762;8.564;2023-03-12T09:38:04;4.73;;;3.37;;
15230;SDS011;32569;51.762;8.564;2023-03-12T09:40:31;4.30;;;3.23;;
15230;SDS011;32569;51.762;8.564;2023-03-12T09:43:02;5.73;;;3.60;;
15230;SDS011;32569;51.762;8.564;2023-03-12T09:45:34;3.90;;;3.27;;
15230;SDS011;32569;51.762;8.564;2023-03-12T09:48:04;7.37;;;3.37;;
15230;SDS011;32569;51.762;8.564;2023-03-12T09:50:33;6.87;;;3.57;;
15230;SDS011;32569;51.762;8.564;2023-03-12T09:53:08;6.83;;;4.00;;
15230;SDS011;32569;51.762;8.564;2023-03-12T09:55:40;5.07;;;3.87;;
15230;SDS011;32569;51.762;8.564;2023-03-12T09:58:11;5.50;;;3.47;;
15230;SDS011;32569;51.762;8.564;2023-03-12T10:00:40;4.93;;;3.50;;
15230;SDS011;32569;51.762;8.564;2023-03-12T10:03:08;4.00;;;3.60;;
15230;SDS011;32569;51.762;8.564;2023-03-12T10:05:42;4.70;;;3.60;;
15230;SDS011;32569;51.762;8.564;2023-03-12T10:08:15;4.50;;;4.10;;
15230;SDS011;32569;51.762;8.564;2023-03-12T10:10:52;6.20;;;4.57;;
15230;SDS011;32569;51.762;8.564;2023-03-12T10:13:26;6.60;;;5.20;;
15230;SDS011;32569;51.762;8.564;2023-03-12T10:16:08;6.23;;;4.57;;
15230;SDS011;32569;51.762;8.564;2023-03-12T10:18:48;4.80;;;4.40;;
15230;SDS011;32569;51.762;8.564;2023-03-12T10:21:23;5.47;;;4.97;;
15230;SDS011;32569;51.762;8.564;2023-03-12T10:26:48;5.67;;;5.07;;
15230;SDS011;32569;51.762;8.564;2023-03-12T10:29:17;6.23;;;5.33;;
15230;SDS011;32569;51.762;8.564;2023-03-12T10:31:49;6.60;;;4.80;;
15230;SDS011;32569;51.762;8.564;2023-03-12T10:34:20;5.20;;;4.57;;
15230;SDS011;32569;51.762;8.564;2023-03-12T10:36:51;6.20;;;4.80;;
15230;SDS011;32569;51.762;8.564;2023-03-12T10:39:25;6.07;;;4.97;;
15230;SDS011;32569;51.762;8.564;2023-03-12T10:41:54;9.47;;;5.20;;
15230;SDS011;32569;51.762;8.564;2023-03-12T10:44:22;6.50;;;5.53;;
15230;SDS011;32569;51.762;8.564;2023-03-12T10:46:51;5.90;;;5.40;;
15230;SDS011;32569;51.762;8.564;2023-03-12T10:49:31;6.30;;;5.60;;
15230;SDS011;32569;51.762;8.564;2023-03-12T10:52:01;7.90;;;6.33;;
15230;SDS011;32569;51.762;8.564;2023-03-12T10:54:33;8.47;;;6.30;;
15230;SDS011;32569;51.762;8.564;2023-03-12T10:57:01;6.57;;;5.97;;
15230;SDS011;32569;51.762;8.564;2023-03-12T10:59:30;8.83;;;6.83;;
15230;SDS011;32569;51.762;8.564;2023-03-12T11:01:59;7.50;;;6.80;;
15230;SDS011;32569;51.762;8.564;2023-03-12T11:04:27;8.43;;;7.40;;
15230;SDS011;32569;51.762;8.564;2023-03-12T11:07:06;8.63;;;7.73;;
15230;SDS011;32569;51.762;8.564;2023-03-12T11:09:45;8.70;;;7.80;;
15230;SDS011;32569;51.762;8.564;2023-03-12T11:12:28;10.77;;;7.97;;
15230;SDS011;32569;51.762;8.564;2023-03-12T11:14:56;10.00;;;7.83;;
15230;SDS011;32569;51.762;8.564;2023-03-12T11:17:23;9.10;;;8.27;;
15230;SDS011;32569;51.762;8.564;2023-03-12T11:19:51;9.30;;;8.40;;
15230;SDS011;32569;51.762;8.564;2023-03-12T11:22:28;11.10;;;8.60;;
15230;SDS011;32569;51.762;8.564;2023-03-12T11:24:59;9.40;;;8.43;;
15230;SDS011;32569;51.762;8.564;2023-03-12T11:27:33;8.63;;;7.77;;
15230;SDS011;32569;51.762;8.564;2023-03-12T11:30:06;10.63;;;8.00;;
15230;SDS011;32569;51.762;8.564;2023-03-12T11:32:37;8.67;;;7.83;;
15230;SDS011;32569;51.762;8.564;2023-03-12T11:35:08;11.90;;;9.07;;
15230;SDS011;32569;51.762;8.564;2023-03-12T11:37:38;9.70;;;8.70;;
15230;SDS011;32569;51.762;8.564;2023-03-12T11:40:20;11.97;;;10.23;;
15230;SDS011;32569;51.762;8.564;2023-03-12T11:43:05;10.03;;;9.00;;
15230;SDS011;32569;51.762;8.564;2023-03-12T11:45:52;9.17;;;8.23;;
15230;SDS011;32569;51.762;8.564;2023-03-12T11:48:39;9.13;;;8.33;;
15230;SDS011;32569;51.762;8.564;2023-03-12T11:51:18;10.10;;;8.03;;
15230;SDS011;32569;51.762;8.564;2023-03-12T11:54:02;9.60;;;8.30;;
15230;SDS011;32569;51.762;8.564;2023-03-12T11:56:41;9.53;;;8.57;;
15230;SDS011;32569;51.762;8.564;2023-03-12T11:59:17;10.00;;;9.00;;
15230;SDS011;32569;51.762;8.564;2023-03-12T12:01:58;10.83;;;9.50;;
15230;SDS011;32569;51.762;8.564;2023-03-12T12:07:44;8.33;;;7.53;;
15230;SDS011;32569;51.762;8.564;2023-03-12T12:10:23;9.37;;;8.33;;
15230;SDS011;32569;51.762;8.564;2023-03-12T12:13:01;11.60;;;8.37;;
15230;SDS011;32569;51.762;8.564;2023-03-12T12:15:34;8.90;;;8.00;;
15230;SDS011;32569;51.762;8.564;2023-03-12T12:18:14;8.20;;;7.40;;
15230;SDS011;32569;51.762;8.564;2023-03-12T12:20:52;8.47;;;7.67;;
15230;SDS011;32569;51.762;8.564;2023-03-12T12:23:26;8.27;;;7.47;;
15230;SDS011;32569;51.762;8.564;2023-03-12T12:26:02;8.20;;;7.40;;
15230;SDS011;32569;51.762;8.564;2023-03-12T12:31:31;9.77;;;8.87;;
15230;SDS011;32569;51.762;8.564;2023-03-12T12:34:11;8.97;;;8.13;;
15230;SDS011;32569;51.762;8.564;2023-03-12T12:37:13;9.30;;;8.40;;
15230;SDS011;32569;51.762;8.564;2023-03-12T12:39:46;8.97;;;8.03;;
15230;SDS011;32569;51.762;8.564;2023-03-12T12:42:20;8.17;;;7.37;;
15230;SDS011;32569;51.762;8.564;2023-03-12T12:44:52;8.00;;;7.20;;
15230;SDS011;32569;51.762;8.564;2023-03-12T12:47:25;6.63;;;5.73;;
15230;SDS011;32569;51.762;8.564;2023-03-12T12:50:00;5.70;;;5.20;;
15230;SDS011;32569;51.762;8.564;2023-03-12T12:52:28;6.67;;;6.07;;
15230;SDS011;32569;51.762;8.564;2023-03-12T12:54:57;7.03;;;6.30;;
15230;SDS011;32569;51.762;8.564;2023-03-12T12:57:33;7.97;;;5.90;;
15230;SDS011;32569;51.762;8.564;2023-03-12T13:03:05;6.80;;;6.13;;
15230;SDS011;32569;51.762;8.564;2023-03-12T13:05:40;6.20;;;5.60;;
15230;SDS011;32569;51.762;8.564;2023-03-12T13:10:58;4.97;;;4.27;;
15230;SDS011;32569;51.762;8.564;2023-03-12T13:13:28;6.67;;;6.07;;
15230;SDS011;32569;51.762;8.564;2023-03-12T13:18:55;7.17;;;6.47;;
15230;SDS011;32569;51.762;8.564;2023-03-12T13:21:23;7.33;;;5.90;;
15230;SDS011;32569;51.762;8.564;2023-03-12T13:23:57;7.00;;;6.23;;
15230;SDS011;32569;51.762;8.564;2023-03-12T13:26:39;7.00;;;5.87;;
15230;SDS011;32569;51.762;8.564;2023-03-12T13:29:20;10.43;;;6.93;;
15230;SDS011;32569;51.762;8.564;2023-03-12T13:32:00;9.03;;;6.83;;
15230;SDS011;32569;51.762;8.564;2023-03-12T13:34:30;9.87;;;6.80;;
15230;SDS011;32569;51.762;8.564;2023-03-12T13:43:00;8.63;;;6.77;;
15230;SDS011;32569;51.762;8.564;2023-03-12T13:45:30;10.20;;;7.37;;
15230;SDS011;32569;51.762;8.564;2023-03-12T13:47:58;8.67;;;7.20;;
15230;SDS011;32569;51.762;8.564;2023-03-12T13:50:28;8.63;;;6.80;;
15230;SDS011;32569;51.762;8.564;2023-03-12T13:53:05;9.53;;;7.20;;
15230;SDS011;32569;51.762;8.564;2023-03-12T13:55:44;10.87;;;7.30;;
15230;SDS011;32569;51.762;8.564;2023-03-12T13:58:15;8.50;;;7.00;;
15230;SDS011;32569;51.762;8.564;2023-03-12T14:00:47;9.37;;;7.40;;
15230;SDS011;32569;51.762;8.564;2023-03-12T14:03:19;12.13;;;8.30;;
15230;SDS011;32569;51.762;8.564;2023-03-12T14:05:51;12.30;;;8.17;;
15230;SDS011;32569;51.762;8.564;2023-03-12T14:11:43;11.93;;;9.10;;
15230;SDS011;32569;51.762;8.564;2023-03-12T14:17:12;8.87;;;7.60;;
15230;SDS011;32569;51.762;8.564;2023-03-12T14:19:44;9.77;;;7.53;;
15230;SDS011;32569;51.762;8.564;2023-03-12T14:22:14;9.77;;;8.20;;
15230;SDS011;32569;51.762;8.564;2023-03-12T14:24:47;9.20;;;7.70;;
15230;SDS011;32569;51.762;8.564;2023-03-12T14:27:16;7.90;;;6.40;;
15230;SDS011;32569;51.762;8.564;2023-03-12T14:29:45;9.27;;;6.50;;
15230;SDS011;32569;51.762;8.564;2023-03-12T14:32:17;7.53;;;6.70;;
15230;SDS011;32569;51.762;8.564;2023-03-12T14:34:48;11.23;;;7.23;;
15230;SDS011;32569;51.762;8.564;2023-03-12T14:37:20;9.70;;;7.07;;
15230;SDS011;32569;51.762;8.564;2023-03-12T14:39:50;9.47;;;6.70;;
15230;SDS011;32569;51.762;8.564;2023-03-12T14:42:20;8.03;;;5.97;;
15230;SDS011;32569;51.762;8.564;2023-03-12T14:44:54;8.90;;;6.43;;
15230;SDS011;32569;51.762;8.564;2023-03-12T14:47:23;11.37;;;7.47;;
15230;SDS011;32569;51.762;8.564;2023-03-12T14:49:50;10.73;;;7.90;;
15230;SDS011;32569;51.762;8.564;2023-03-12T14:52:21;10.73;;;7.30;;
15230;SDS011;32569;51.762;8.564;2023-03-12T14:54:52;11.30;;;7.43;;
15230;SDS011;32569;51.762;8.564;2023-03-12T14:57:21;11.30;;;8.00;;
15230;SDS011;32569;51.762;8.564;2023-03-12T14:59:52;12.73;;;9.17;;
15230;SDS011;32569;51.762;8.564;2023-03-12T15:02:19;15.00;;;8.63;;
15230;SDS011;32569;51.762;8.564;2023-03-12T15:04:47;11.17;;;7.77;;
15230;SDS011;32569;51.762;8.564;2023-03-12T15:07:16;14.73;;;9.60;;
15230;SDS011;32569;51.762;8.564;2023-03-12T15:09:47;9.80;;;8.23;;
15230;SDS011;32569;51.762;8.564;2023-03-12T15:12:17;10.70;;;7.70;;
15230;SDS011;32569;51.762;8.564;2023-03-12T15:14:45;13.50;;;9.20;;
15230;SDS011;32569;51.762;8.564;2023-03-12T15:17:14;12.00;;;8.13;;
15230;SDS011;32569;51.762;8.564;2023-03-12T15:19:42;11.93;;;7.57;;
15230;SDS011;32569;51.762;8.564;2023-03-12T15:22:10;20.70;;;9.93;;
15230;SDS011;32569;51.762;8.564;2023-03-12T15:24:40;11.40;;;8.93;;
15230;SDS011;32569;51.762;8.564;2023-03-12T15:27:19;11.77;;;8.30;;
15230;SDS011;32569;51.762;8.564;2023-03-12T15:29:47;12.40;;;8.40;;